sensor_id;sensor_type;location;lat;lon;timestamp;temperature;humidity
80274;DHT22;69576;51.902;-8.462;2023-12-07T00:02:00;12.90;74.70
80274;DHT22;69576;51.902;-8.462;2023-12-07T00:04:26;12.90;74.70
80274;DHT22;69576;51.902;-8.462;2023-12-07T00:06:51;12.90;74.60
80274;DHT22;69576;51.902;-8.462;2023-12-07T00:09:20;12.90;74.70
80274;DHT22;69576;51.902;-8.462;2023-12-07T00:11:50;12.90;74.60
80274;DHT22;69576;51.902;-8.462;2023-12-07T00:14:16;12.90;74.60
80274;DHT22;69576;51.902;-8.462;2023-12-07T00:16:44;12.90;74.60
80274;DHT22;69576;51.902;-8.462;2023-12-07T00:19:10;12.90;74.60
80274;DHT22;69576;51.902;-8.462;2023-12-07T00:21:35;12.90;74.70
80274;DHT22;69576;51.902;-8.462;2023-12-07T00:24:01;12.90;74.60
80274;DHT22;69576;51.902;-8.462;2023-12-07T00:26:27;12.90;74.60
80274;DHT22;69576;51.902;-8.462;2023-12-07T00:28:53;12.90;74.60
80274;DHT22;69576;51.902;-8.462;2023-12-07T00:31:18;12.90;74.70
80274;DHT22;69576;51.902;-8.462;2023-12-07T00:33:46;12.90;74.60
80274;DHT22;69576;51.902;-8.462;2023-12-07T00:36:15;12.90;74.50
80274;DHT22;69576;51.902;-8.462;2023-12-07T00:38:40;12.90;74.30
80274;DHT22;69576;51.902;-8.462;2023-12-07T00:41:06;12.90;74.30
80274;DHT22;69576;51.902;-8.462;2023-12-07T00:43:33;12.90;74.30
80274;DHT22;69576;51.902;-8.462;2023-12-07T00:46:01;12.90;74.40
80274;DHT22;69576;51.902;-8.462;2023-12-07T00:48:27;12.90;74.30
80274;DHT22;69576;51.902;-8.462;2023-12-07T00:50:53;12.90;74.30
80274;DHT22;69576;51.902;-8.462;2023-12-07T00:53:19;12.90;74.30
80274;DHT22;69576;51.902;-8.462;2023-12-07T00:55:44;12.90;74.30
80274;DHT22;69576;51.902;-8.462;2023-12-07T00:58:12;12.90;74.20
80274;DHT22;69576;51.902;-8.462;2023-12-07T01:00:43;12.90;74.20
80274;DHT22;69576;51.902;-8.462;2023-12-07T01:03:09;12.90;74.30
80274;DHT22;69576;51.902;-8.462;2023-12-07T01:05:36;12.90;74.30
80274;DHT22;69576;51.902;-8.462;2023-12-07T01:08:01;12.90;74.20
80274;DHT22;69576;51.902;-8.462;2023-12-07T01:10:27;12.90;74.20
80274;DHT22;69576;51.902;-8.462;2023-12-07T01:12:53;12.90;74.30
80274;DHT22;69576;51.902;-8.462;2023-12-07T01:15:21;12.90;74.20
80274;DHT22;69576;51.902;-8.462;2023-12-07T01:17:47;12.90;74.30
80274;DHT22;69576;51.902;-8.462;2023-12-07T01:20:13;12.90;74.20
80274;DHT22;69576;51.902;-8.462;2023-12-07T01:22:44;12.90;74.20
80274;DHT22;69576;51.902;-8.462;2023-12-07T01:25:11;12.90;74.20
80274;DHT22;69576;51.902;-8.462;2023-12-07T01:27:37;12.90;74.20
80274;DHT22;69576;51.902;-8.462;2023-12-07T01:30:03;12.90;74.20
80274;DHT22;69576;51.902;-8.462;2023-12-07T01:32:33;12.90;74.10
80274;DHT22;69576;51.902;-8.462;2023-12-07T01:35:01;12.90;74.10
80274;DHT22;69576;51.902;-8.462;2023-12-07T01:37:30;12.90;74.00
80274;DHT22;69576;51.902;-8.462;2023-12-07T01:39:56;12.90;73.90
80274;DHT22;69576;51.902;-8.462;2023-12-07T01:42:22;12.80;74.00
80274;DHT22;69576;51.902;-8.462;2023-12-07T01:44:48;12.90;74.00
80274;DHT22;69576;51.902;-8.462;2023-12-07T01:47:19;12.90;74.10
80274;DHT22;69576;51.902;-8.462;2023-12-07T01:49:47;12.80;74.10
80274;DHT22;69576;51.902;-8.462;2023-12-07T01:52:17;12.80;74.10
80274;DHT22;69576;51.902;-8.462;2023-12-07T01:54:43;12.90;74.10
80274;DHT22;69576;51.902;-8.462;2023-12-07T01:57:11;12.90;74.20
80274;DHT22;69576;51.902;-8.462;2023-12-07T01:59:36;12.80;74.10
80274;DHT22;69576;51.902;-8.462;2023-12-07T02:02:02;12.80;74.10
80274;DHT22;69576;51.902;-8.462;2023-12-07T02:04:28;12.80;74.10
80274;DHT22;69576;51.902;-8.462;2023-12-07T02:06:59;12.80;74.10
80274;DHT22;69576;51.902;-8.462;2023-12-07T02:09:30;12.90;74.10
80274;DHT22;69576;51.902;-8.462;2023-12-07T02:11:56;12.80;74.10
80274;DHT22;69576;51.902;-8.462;2023-12-07T02:14:23;12.80;74.10
80274;DHT22;69576;51.902;-8.462;2023-12-07T02:16:54;12.80;74.10
80274;DHT22;69576;51.902;-8.462;2023-12-07T02:22:02;12.80;74.00
80274;DHT22;69576;51.902;-8.462;2023-12-07T02:24:37;12.80;74.00
80274;DHT22;69576;51.902;-8.462;2023-12-07T02:27:09;12.90;74.00
80274;DHT22;69576;51.902;-8.462;2023-12-07T02:29:35;12.80;74.10
80274;DHT22;69576;51.902;-8.462;2023-12-07T02:32:01;12.90;74.00
80274;DHT22;69576;51.902;-8.462;2023-12-07T02:34:29;12.80;74.10
80274;DHT22;69576;51.902;-8.462;2023-12-07T02:36:59;12.80;74.10
80274;DHT22;69576;51.902;-8.462;2023-12-07T02:39:26;12.80;74.00
80274;DHT22;69576;51.902;-8.462;2023-12-07T02:41:55;12.80;74.00
80274;DHT22;69576;51.902;-8.462;2023-12-07T02:44:21;12.80;74.00
80274;DHT22;69576;51.902;-8.462;2023-12-07T02:46:48;12.80;74.00
80274;DHT22;69576;51.902;-8.462;2023-12-07T02:49:14;12.90;74.00
80274;DHT22;69576;51.902;-8.462;2023-12-07T02:51:40;12.80;74.00
80274;DHT22;69576;51.902;-8.462;2023-12-07T02:54:06;12.80;74.00
80274;DHT22;69576;51.902;-8.462;2023-12-07T02:56:31;12.80;74.10
80274;DHT22;69576;51.902;-8.462;2023-12-07T02:58:58;12.80;74.00
80274;DHT22;69576;51.902;-8.462;2023-12-07T03:01:24;12.80;74.10
80274;DHT22;69576;51.902;-8.462;2023-12-07T03:03:50;12.80;74.00
80274;DHT22;69576;51.902;-8.462;2023-12-07T03:06:16;12.80;74.00
80274;DHT22;69576;51.902;-8.462;2023-12-07T03:08:42;12.80;74.10
80274;DHT22;69576;51.902;-8.462;2023-12-07T03:11:10;12.80;74.10
80274;DHT22;69576;51.902;-8.462;2023-12-07T03:13:38;12.80;74.00
80274;DHT22;69576;51.902;-8.462;2023-12-07T03:16:07;12.80;74.00
80274;DHT22;69576;51.902;-8.462;2023-12-07T03:18:36;12.80;74.00
80274;DHT22;69576;51.902;-8.462;2023-12-07T03:21:02;12.80;74.20
80274;DHT22;69576;51.902;-8.462;2023-12-07T03:23:31;12.80;74.10
80274;DHT22;69576;51.902;-8.462;2023-12-07T03:25:56;12.70;74.10
80274;DHT22;69576;51.902;-8.462;2023-12-07T03:28:22;12.70;74.10
80274;DHT22;69576;51.902;-8.462;2023-12-07T03:30:50;12.70;74.10
80274;DHT22;69576;51.902;-8.462;2023-12-07T03:33:18;12.70;74.10
80274;DHT22;69576;51.902;-8.462;2023-12-07T03:35:44;12.70;74.20
80274;DHT22;69576;51.902;-8.462;2023-12-07T03:38:12;12.70;74.30
80274;DHT22;69576;51.902;-8.462;2023-12-07T03:40:38;12.70;74.20
80274;DHT22;69576;51.902;-8.462;2023-12-07T03:43:06;12.70;74.30
80274;DHT22;69576;51.902;-8.462;2023-12-07T03:45:31;12.70;74.20
80274;DHT22;69576;51.902;-8.462;2023-12-07T03:47:57;12.70;74.20
80274;DHT22;69576;51.902;-8.462;2023-12-07T03:50:23;12.60;74.30
80274;DHT22;69576;51.902;-8.462;2023-12-07T03:52:49;12.60;74.40
80274;DHT22;69576;51.902;-8.462;2023-12-07T03:55:17;12.60;74.30
80274;DHT22;69576;51.902;-8.462;2023-12-07T03:57:45;12.60;74.40
80274;DHT22;69576;51.902;-8.462;2023-12-07T04:00:14;12.50;74.40
80274;DHT22;69576;51.902;-8.462;2023-12-07T04:02:40;12.50;74.50
80274;DHT22;69576;51.902;-8.462;2023-12-07T04:05:08;12.50;74.50
80274;DHT22;69576;51.902;-8.462;2023-12-07T04:07:34;12.50;74.60
80274;DHT22;69576;51.902;-8.462;2023-12-07T04:10:02;12.50;74.60
80274;DHT22;69576;51.902;-8.462;2023-12-07T04:12:31;12.50;74.70
80274;DHT22;69576;51.902;-8.462;2023-12-07T04:14:59;12.50;74.60
80274;DHT22;69576;51.902;-8.462;2023-12-07T04:17:29;12.50;74.70
80274;DHT22;69576;51.902;-8.462;2023-12-07T04:19:55;12.50;74.80
80274;DHT22;69576;51.902;-8.462;2023-12-07T04:22:21;12.50;74.70
80274;DHT22;69576;51.902;-8.462;2023-12-07T04:24:47;12.50;74.80
80274;DHT22;69576;51.902;-8.462;2023-12-07T04:27:17;12.50;74.70
80274;DHT22;69576;51.902;-8.462;2023-12-07T04:29:43;12.50;74.70
80274;DHT22;69576;51.902;-8.462;2023-12-07T04:32:08;12.50;74.70
80274;DHT22;69576;51.902;-8.462;2023-12-07T04:34:34;12.50;74.80
80274;DHT22;69576;51.902;-8.462;2023-12-07T04:37:00;12.50;74.70
80274;DHT22;69576;51.902;-8.462;2023-12-07T04:39:26;12.50;74.70
80274;DHT22;69576;51.902;-8.462;2023-12-07T04:41:52;12.50;74.70
80274;DHT22;69576;51.902;-8.462;2023-12-07T04:44:18;12.50;74.80
80274;DHT22;69576;51.902;-8.462;2023-12-07T04:46:44;12.50;74.90
80274;DHT22;69576;51.902;-8.462;2023-12-07T04:49:13;12.50;74.90
80274;DHT22;69576;51.902;-8.462;2023-12-07T04:51:39;12.50;75.00
80274;DHT22;69576;51.902;-8.462;2023-12-07T04:54:06;12.50;74.90
80274;DHT22;69576;51.902;-8.462;2023-12-07T04:56:34;12.50;75.00
80274;DHT22;69576;51.902;-8.462;2023-12-07T04:59:02;12.50;74.80
80274;DHT22;69576;51.902;-8.462;2023-12-07T05:01:27;12.50;74.90
80274;DHT22;69576;51.902;-8.462;2023-12-07T05:03:56;12.50;75.00
80274;DHT22;69576;51.902;-8.462;2023-12-07T05:06:21;12.50;75.00
80274;DHT22;69576;51.902;-8.462;2023-12-07T05:08:47;12.50;75.00
80274;DHT22;69576;51.902;-8.462;2023-12-07T05:11:13;12.50;75.10
80274;DHT22;69576;51.902;-8.462;2023-12-07T05:13:41;12.50;75.10
80274;DHT22;69576;51.902;-8.462;2023-12-07T05:16:10;12.50;75.00
80274;DHT22;69576;51.902;-8.462;2023-12-07T05:18:36;12.60;75.10
80274;DHT22;69576;51.902;-8.462;2023-12-07T05:21:01;12.50;75.10
80274;DHT22;69576;51.902;-8.462;2023-12-07T05:23:30;12.60;75.00
80274;DHT22;69576;51.902;-8.462;2023-12-07T05:25:55;12.60;75.00
80274;DHT22;69576;51.902;-8.462;2023-12-07T05:28:21;12.60;75.10
80274;DHT22;69576;51.902;-8.462;2023-12-07T05:30:50;12.60;75.20
80274;DHT22;69576;51.902;-8.462;2023-12-07T05:33:18;12.70;75.30
80274;DHT22;69576;51.902;-8.462;2023-12-07T05:35:49;12.70;75.20
80274;DHT22;69576;51.902;-8.462;2023-12-07T05:38:15;12.70;75.30
80274;DHT22;69576;51.902;-8.462;2023-12-07T05:40:43;12.70;75.20
80274;DHT22;69576;51.902;-8.462;2023-12-07T05:43:08;12.70;75.20
80274;DHT22;69576;51.902;-8.462;2023-12-07T05:45:37;12.70;75.10
80274;DHT22;69576;51.902;-8.462;2023-12-07T05:48:02;12.70;75.10
80274;DHT22;69576;51.902;-8.462;2023-12-07T05:50:28;12.70;75.10
80274;DHT22;69576;51.902;-8.462;2023-12-07T05:52:56;12.70;75.20
80274;DHT22;69576;51.902;-8.462;2023-12-07T05:55:22;12.70;75.20
80274;DHT22;69576;51.902;-8.462;2023-12-07T05:57:48;12.70;75.10
80274;DHT22;69576;51.902;-8.462;2023-12-07T06:00:19;12.70;75.10
80274;DHT22;69576;51.902;-8.462;2023-12-07T06:02:45;12.70;75.10
80274;DHT22;69576;51.902;-8.462;2023-12-07T06:05:11;12.70;75.10
80274;DHT22;69576;51.902;-8.462;2023-12-07T06:07:36;12.70;75.20
80274;DHT22;69576;51.902;-8.462;2023-12-07T06:10:02;12.70;75.20
80274;DHT22;69576;51.902;-8.462;2023-12-07T06:12:29;12.70;75.30
80274;DHT22;69576;51.902;-8.462;2023-12-07T06:14:55;12.70;75.30
80274;DHT22;69576;51.902;-8.462;2023-12-07T06:17:21;12.70;75.20
80274;DHT22;69576;51.902;-8.462;2023-12-07T06:19:46;12.70;75.20
80274;DHT22;69576;51.902;-8.462;2023-12-07T06:22:12;12.70;75.20
80274;DHT22;69576;51.902;-8.462;2023-12-07T06:24:41;12.70;75.30
80274;DHT22;69576;51.902;-8.462;2023-12-07T06:27:09;12.70;75.30
80274;DHT22;69576;51.902;-8.462;2023-12-07T06:29:35;12.60;75.30
80274;DHT22;69576;51.902;-8.462;2023-12-07T06:32:03;12.60;75.20
80274;DHT22;69576;51.902;-8.462;2023-12-07T06:34:31;12.70;75.30
80274;DHT22;69576;51.902;-8.462;2023-12-07T06:36:57;12.60;75.40
80274;DHT22;69576;51.902;-8.462;2023-12-07T06:39:23;12.60;75.40
80274;DHT22;69576;51.902;-8.462;2023-12-07T06:41:49;12.50;75.50
80274;DHT22;69576;51.902;-8.462;2023-12-07T06:44:14;12.50;75.60
80274;DHT22;69576;51.902;-8.462;2023-12-07T06:46:42;12.60;75.60
80274;DHT22;69576;51.902;-8.462;2023-12-07T06:49:08;12.60;75.60
80274;DHT22;69576;51.902;-8.462;2023-12-07T06:51:40;12.70;75.70
80274;DHT22;69576;51.902;-8.462;2023-12-07T06:54:08;12.70;75.70
80274;DHT22;69576;51.902;-8.462;2023-12-07T06:56:34;12.70;75.70
80274;DHT22;69576;51.902;-8.462;2023-12-07T06:59:00;12.70;75.80
80274;DHT22;69576;51.902;-8.462;2023-12-07T07:01:26;12.70;75.80
80274;DHT22;69576;51.902;-8.462;2023-12-07T07:03:51;12.70;75.90
80274;DHT22;69576;51.902;-8.462;2023-12-07T07:06:22;12.70;76.00
80274;DHT22;69576;51.902;-8.462;2023-12-07T07:08:48;12.70;76.00
80274;DHT22;69576;51.902;-8.462;2023-12-07T07:11:17;12.70;76.10
80274;DHT22;69576;51.902;-8.462;2023-12-07T07:13:42;12.70;76.00
80274;DHT22;69576;51.902;-8.462;2023-12-07T07:16:11;12.70;76.10
80274;DHT22;69576;51.902;-8.462;2023-12-07T07:18:40;12.80;76.20
80274;DHT22;69576;51.902;-8.462;2023-12-07T07:21:06;12.80;76.10
80274;DHT22;69576;51.902;-8.462;2023-12-07T07:23:34;12.80;76.20
80274;DHT22;69576;51.902;-8.462;2023-12-07T07:26:00;12.80;76.20
80274;DHT22;69576;51.902;-8.462;2023-12-07T07:28:26;12.80;76.20
80274;DHT22;69576;51.902;-8.462;2023-12-07T07:30:51;12.80;76.20
80274;DHT22;69576;51.902;-8.462;2023-12-07T07:33:18;12.80;76.20
80274;DHT22;69576;51.902;-8.462;2023-12-07T07:35:44;12.80;76.30
80274;DHT22;69576;51.902;-8.462;2023-12-07T07:38:10;12.80;76.40
80274;DHT22;69576;51.902;-8.462;2023-12-07T07:40:38;12.90;76.40
80274;DHT22;69576;51.902;-8.462;2023-12-07T07:43:07;12.90;76.30
80274;DHT22;69576;51.902;-8.462;2023-12-07T07:45:35;12.90;76.40
80274;DHT22;69576;51.902;-8.462;2023-12-07T07:48:03;12.90;76.50
80274;DHT22;69576;51.902;-8.462;2023-12-07T07:50:29;12.90;76.50
80274;DHT22;69576;51.902;-8.462;2023-12-07T07:52:55;12.90;76.50
80274;DHT22;69576;51.902;-8.462;2023-12-07T07:55:24;12.90;76.50
80274;DHT22;69576;51.902;-8.462;2023-12-07T07:57:49;12.90;76.50
80274;DHT22;69576;51.902;-8.462;2023-12-07T08:00:15;12.90;76.30
80274;DHT22;69576;51.902;-8.462;2023-12-07T08:02:41;12.90;76.20
80274;DHT22;69576;51.902;-8.462;2023-12-07T08:05:09;12.90;76.20
80274;DHT22;69576;51.902;-8.462;2023-12-07T08:07:38;12.90;76.30
80274;DHT22;69576;51.902;-8.462;2023-12-07T08:10:05;12.80;76.50
80274;DHT22;69576;51.902;-8.462;2023-12-07T08:12:34;12.80;76.50
80274;DHT22;69576;51.902;-8.462;2023-12-07T08:15:00;12.80;76.50
80274;DHT22;69576;51.902;-8.462;2023-12-07T08:17:28;12.80;76.50
80274;DHT22;69576;51.902;-8.462;2023-12-07T08:19:57;12.80;76.60
80274;DHT22;69576;51.902;-8.462;2023-12-07T08:22:29;12.80;76.60
80274;DHT22;69576;51.902;-8.462;2023-12-07T08:24:57;12.90;76.60
80274;DHT22;69576;51.902;-8.462;2023-12-07T08:27:23;12.80;76.50
80274;DHT22;69576;51.902;-8.462;2023-12-07T08:29:49;12.80;76.60
80274;DHT22;69576;51.902;-8.462;2023-12-07T08:32:14;12.80;76.50
80274;DHT22;69576;51.902;-8.462;2023-12-07T08:34:44;12.80;76.60
80274;DHT22;69576;51.902;-8.462;2023-12-07T08:37:10;12.80;76.60
80274;DHT22;69576;51.902;-8.462;2023-12-07T08:39:36;12.90;76.60
80274;DHT22;69576;51.902;-8.462;2023-12-07T08:42:04;12.90;76.50
80274;DHT22;69576;51.902;-8.462;2023-12-07T08:44:32;12.90;76.50
80274;DHT22;69576;51.902;-8.462;2023-12-07T08:47:03;13.00;76.40
80274;DHT22;69576;51.902;-8.462;2023-12-07T08:49:29;13.00;76.40
80274;DHT22;69576;51.902;-8.462;2023-12-07T08:51:55;13.00;76.30
80274;DHT22;69576;51.902;-8.462;2023-12-07T08:54:21;13.00;76.20
80274;DHT22;69576;51.902;-8.462;2023-12-07T08:56:52;13.00;76.20
80274;DHT22;69576;51.902;-8.462;2023-12-07T08:59:20;13.00;76.10
80274;DHT22;69576;51.902;-8.462;2023-12-07T09:01:46;13.10;76.10
80274;DHT22;69576;51.902;-8.462;2023-12-07T09:04:14;13.10;76.10
80274;DHT22;69576;51.902;-8.462;2023-12-07T09:06:39;13.10;76.10
80274;DHT22;69576;51.902;-8.462;2023-12-07T09:09:07;13.10;76.10
80274;DHT22;69576;51.902;-8.462;2023-12-07T09:11:33;13.10;76.10
80274;DHT22;69576;51.902;-8.462;2023-12-07T09:14:01;13.10;76.00
80274;DHT22;69576;51.902;-8.462;2023-12-07T09:16:27;13.10;75.90
80274;DHT22;69576;51.902;-8.462;2023-12-07T09:18:55;13.10;75.80
80274;DHT22;69576;51.902;-8.462;2023-12-07T09:21:23;13.10;75.80
80274;DHT22;69576;51.902;-8.462;2023-12-07T09:23:53;13.10;75.90
80274;DHT22;69576;51.902;-8.462;2023-12-07T09:26:21;13.10;75.80
80274;DHT22;69576;51.902;-8.462;2023-12-07T09:28:49;13.10;75.70
80274;DHT22;69576;51.902;-8.462;2023-12-07T09:31:20;13.10;75.70
80274;DHT22;69576;51.902;-8.462;2023-12-07T09:33:48;13.10;75.60
80274;DHT22;69576;51.902;-8.462;2023-12-07T09:36:18;13.10;75.60
80274;DHT22;69576;51.902;-8.462;2023-12-07T09:38:46;13.10;75.60
80274;DHT22;69576;51.902;-8.462;2023-12-07T09:41:12;13.10;75.50
80274;DHT22;69576;51.902;-8.462;2023-12-07T09:43:38;13.20;75.50
80274;DHT22;69576;51.902;-8.462;2023-12-07T09:46:05;13.10;75.50
80274;DHT22;69576;51.902;-8.462;2023-12-07T09:48:33;13.20;75.50
80274;DHT22;69576;51.902;-8.462;2023-12-07T09:51:02;13.20;75.40
80274;DHT22;69576;51.902;-8.462;2023-12-07T09:53:29;13.20;75.40
80274;DHT22;69576;51.902;-8.462;2023-12-07T09:55:58;13.20;75.40
80274;DHT22;69576;51.902;-8.462;2023-12-07T09:58:24;13.30;75.40
80274;DHT22;69576;51.902;-8.462;2023-12-07T10:00:49;13.30;75.50
80274;DHT22;69576;51.902;-8.462;2023-12-07T10:03:23;13.30;75.60
80274;DHT22;69576;51.902;-8.462;2023-12-07T10:05:58;13.40;75.60
80274;DHT22;69576;51.902;-8.462;2023-12-07T10:08:32;13.50;75.50
80274;DHT22;69576;51.902;-8.462;2023-12-07T10:11:10;13.60;75.60
80274;DHT22;69576;51.902;-8.462;2023-12-07T10:13:41;13.60;75.50
80274;DHT22;69576;51.902;-8.462;2023-12-07T10:16:14;13.70;75.30
80274;DHT22;69576;51.902;-8.462;2023-12-07T10:18:41;13.70;75.20
80274;DHT22;69576;51.902;-8.462;2023-12-07T10:21:11;13.70;75.00
80274;DHT22;69576;51.902;-8.462;2023-12-07T10:23:40;13.70;74.90
80274;DHT22;69576;51.902;-8.462;2023-12-07T10:26:08;13.70;74.80
80274;DHT22;69576;51.902;-8.462;2023-12-07T10:28:39;13.70;74.80
80274;DHT22;69576;51.902;-8.462;2023-12-07T10:31:08;13.80;74.70
80274;DHT22;69576;51.902;-8.462;2023-12-07T10:33:39;13.90;74.80
80274;DHT22;69576;51.902;-8.462;2023-12-07T10:36:05;13.90;74.90
80274;DHT22;69576;51.902;-8.462;2023-12-07T10:38:33;13.90;74.80
80274;DHT22;69576;51.902;-8.462;2023-12-07T10:41:05;13.90;74.80
80274;DHT22;69576;51.902;-8.462;2023-12-07T10:43:36;13.90;74.80
80274;DHT22;69576;51.902;-8.462;2023-12-07T10:46:04;13.90;74.60
80274;DHT22;69576;51.902;-8.462;2023-12-07T10:48:33;13.90;74.80
80274;DHT22;69576;51.902;-8.462;2023-12-07T10:51:05;13.90;75.00
80274;DHT22;69576;51.902;-8.462;2023-12-07T10:53:53;13.90;74.90
80274;DHT22;69576;51.902;-8.462;2023-12-07T10:56:44;13.90;74.70
80274;DHT22;69576;51.902;-8.462;2023-12-07T10:59:12;14.00;74.80
80274;DHT22;69576;51.902;-8.462;2023-12-07T11:01:42;14.00;74.70
80274;DHT22;69576;51.902;-8.462;2023-12-07T11:04:12;14.00;74.70
80274;DHT22;69576;51.902;-8.462;2023-12-07T11:06:40;14.00;74.70
80274;DHT22;69576;51.902;-8.462;2023-12-07T11:09:09;14.00;74.60
80274;DHT22;69576;51.902;-8.462;2023-12-07T11:11:43;14.00;74.60
80274;DHT22;69576;51.902;-8.462;2023-12-07T11:14:12;14.10;74.70
80274;DHT22;69576;51.902;-8.462;2023-12-07T11:16:43;14.10;74.70
80274;DHT22;69576;51.902;-8.462;2023-12-07T11:22:00;14.20;74.30
80274;DHT22;69576;51.902;-8.462;2023-12-07T11:24:26;14.30;74.10
80274;DHT22;69576;51.902;-8.462;2023-12-07T11:26:57;14.30;74.10
80274;DHT22;69576;51.902;-8.462;2023-12-07T11:29:28;14.30;73.80
80274;DHT22;69576;51.902;-8.462;2023-12-07T11:32:05;14.40;73.80
80274;DHT22;69576;51.902;-8.462;2023-12-07T11:34:38;14.40;73.70
80274;DHT22;69576;51.902;-8.462;2023-12-07T11:37:05;14.50;73.50
80274;DHT22;69576;51.902;-8.462;2023-12-07T11:39:41;14.50;73.50
80274;DHT22;69576;51.902;-8.462;2023-12-07T11:42:16;14.60;73.10
80274;DHT22;69576;51.902;-8.462;2023-12-07T11:44:47;14.60;73.20
80274;DHT22;69576;51.902;-8.462;2023-12-07T11:47:20;14.60;72.80
80274;DHT22;69576;51.902;-8.462;2023-12-07T11:49:47;14.70;72.70
80274;DHT22;69576;51.902;-8.462;2023-12-07T11:52:17;14.70;72.70
80274;DHT22;69576;51.902;-8.462;2023-12-07T11:54:49;14.70;72.70
80274;DHT22;69576;51.902;-8.462;2023-12-07T11:57:18;14.70;72.50
80274;DHT22;69576;51.902;-8.462;2023-12-07T11:59:44;14.70;72.60
80274;DHT22;69576;51.902;-8.462;2023-12-07T12:02:13;14.70;72.50
80274;DHT22;69576;51.902;-8.462;2023-12-07T12:04:44;14.60;72.50
80274;DHT22;69576;51.902;-8.462;2023-12-07T12:07:11;14.60;72.50
80274;DHT22;69576;51.902;-8.462;2023-12-07T12:09:39;14.70;72.50
80274;DHT22;69576;51.902;-8.462;2023-12-07T12:12:08;14.70;72.30
80274;DHT22;69576;51.902;-8.462;2023-12-07T12:14:41;14.70;72.30
80274;DHT22;69576;51.902;-8.462;2023-12-07T12:17:06;14.80;72.30
80274;DHT22;69576;51.902;-8.462;2023-12-07T12:19:32;14.90;72.50
80274;DHT22;69576;51.902;-8.462;2023-12-07T12:22:03;15.00;72.50
80274;DHT22;69576;51.902;-8.462;2023-12-07T12:24:30;15.20;72.20
80274;DHT22;69576;51.902;-8.462;2023-12-07T12:26:57;15.30;71.90
80274;DHT22;69576;51.902;-8.462;2023-12-07T12:29:23;15.50;71.70
80274;DHT22;69576;51.902;-8.462;2023-12-07T12:31:51;15.60;71.20
80274;DHT22;69576;51.902;-8.462;2023-12-07T12:34:17;15.80;71.00
80274;DHT22;69576;51.902;-8.462;2023-12-07T12:36:46;15.90;70.90
80274;DHT22;69576;51.902;-8.462;2023-12-07T12:39:16;16.00;70.50
80274;DHT22;69576;51.902;-8.462;2023-12-07T12:41:42;16.10;69.80
80274;DHT22;69576;51.902;-8.462;2023-12-07T12:44:10;16.20;69.80
80274;DHT22;69576;51.902;-8.462;2023-12-07T12:46:36;16.40;69.70
80274;DHT22;69576;51.902;-8.462;2023-12-07T12:49:04;16.40;69.20
80274;DHT22;69576;51.902;-8.462;2023-12-07T12:51:32;16.50;68.60
80274;DHT22;69576;51.902;-8.462;2023-12-07T12:54:02;16.60;68.70
80274;DHT22;69576;51.902;-8.462;2023-12-07T12:56:33;16.70;68.60
80274;DHT22;69576;51.902;-8.462;2023-12-07T12:58:59;16.80;68.40
80274;DHT22;69576;51.902;-8.462;2023-12-07T13:01:27;16.80;68.00
80274;DHT22;69576;51.902;-8.462;2023-12-07T13:03:53;16.90;68.00
80274;DHT22;69576;51.902;-8.462;2023-12-07T13:06:19;16.90;67.60
80274;DHT22;69576;51.902;-8.462;2023-12-07T13:08:46;16.90;67.70
80274;DHT22;69576;51.902;-8.462;2023-12-07T13:11:15;17.00;67.50
80274;DHT22;69576;51.902;-8.462;2023-12-07T13:13:44;17.00;67.20
80274;DHT22;69576;51.902;-8.462;2023-12-07T13:16:10;17.00;66.90
80274;DHT22;69576;51.902;-8.462;2023-12-07T13:18:40;17.00;66.80
80274;DHT22;69576;51.902;-8.462;2023-12-07T13:21:06;17.00;66.80
80274;DHT22;69576;51.902;-8.462;2023-12-07T13:23:32;17.00;66.70
80274;DHT22;69576;51.902;-8.462;2023-12-07T13:25:58;17.00;66.70
80274;DHT22;69576;51.902;-8.462;2023-12-07T13:28:23;17.00;66.50
80274;DHT22;69576;51.902;-8.462;2023-12-07T13:30:49;17.00;66.40
80274;DHT22;69576;51.902;-8.462;2023-12-07T13:33:17;16.90;66.20
80274;DHT22;69576;51.902;-8.462;2023-12-07T13:35:43;16.90;66.50
80274;DHT22;69576;51.902;-8.462;2023-12-07T13:38:09;16.80;66.70
80274;DHT22;69576;51.902;-8.462;2023-12-07T13:40:35;16.60;66.70
80274;DHT22;69576;51.902;-8.462;2023-12-07T13:43:05;16.50;66.80
80274;DHT22;69576;51.902;-8.462;2023-12-07T13:45:32;16.50;66.80
80274;DHT22;69576;51.902;-8.462;2023-12-07T13:47:58;16.40;66.80
80274;DHT22;69576;51.902;-8.462;2023-12-07T13:50:24;16.30;66.80
80274;DHT22;69576;51.902;-8.462;2023-12-07T13:52:50;16.20;67.10
80274;DHT22;69576;51.902;-8.462;2023-12-07T13:55:16;16.20;67.20
80274;DHT22;69576;51.902;-8.462;2023-12-07T13:57:42;16.10;67.30
80274;DHT22;69576;51.902;-8.462;2023-12-07T14:00:08;16.10;67.50
80274;DHT22;69576;51.902;-8.462;2023-12-07T14:02:38;16.10;67.60
80274;DHT22;69576;51.902;-8.462;2023-12-07T14:05:04;16.00;67.30
80274;DHT22;69576;51.902;-8.462;2023-12-07T14:07:30;16.00;67.30
80274;DHT22;69576;51.902;-8.462;2023-12-07T14:09:56;16.00;67.50
80274;DHT22;69576;51.902;-8.462;2023-12-07T14:12:25;16.00;67.50
80274;DHT22;69576;51.902;-8.462;2023-12-07T14:14:52;16.00;67.60
80274;DHT22;69576;51.902;-8.462;2023-12-07T14:17:20;15.90;67.60
80274;DHT22;69576;51.902;-8.462;2023-12-07T14:19:47;15.90;67.90
80274;DHT22;69576;51.902;-8.462;2023-12-07T14:22:14;15.80;67.80
80274;DHT22;69576;51.902;-8.462;2023-12-07T14:24:45;15.80;67.80
80274;DHT22;69576;51.902;-8.462;2023-12-07T14:27:13;15.70;67.80
80274;DHT22;69576;51.902;-8.462;2023-12-07T14:29:38;15.70;68.00
80274;DHT22;69576;51.902;-8.462;2023-12-07T14:32:07;15.60;67.90
80274;DHT22;69576;51.902;-8.462;2023-12-07T14:34:37;15.60;68.00
80274;DHT22;69576;51.902;-8.462;2023-12-07T14:37:06;15.60;68.20
80274;DHT22;69576;51.902;-8.462;2023-12-07T14:39:35;15.60;68.10
80274;DHT22;69576;51.902;-8.462;2023-12-07T14:42:01;15.60;68.20
80274;DHT22;69576;51.902;-8.462;2023-12-07T14:44:30;15.60;68.20
80274;DHT22;69576;51.902;-8.462;2023-12-07T14:46:59;15.60;68.20
80274;DHT22;69576;51.902;-8.462;2023-12-07T14:49:27;15.60;68.50
80274;DHT22;69576;51.902;-8.462;2023-12-07T14:51:55;15.60;68.40
80274;DHT22;69576;51.902;-8.462;2023-12-07T14:54:24;15.50;68.30
80274;DHT22;69576;51.902;-8.462;2023-12-07T14:56:50;15.50;68.40
80274;DHT22;69576;51.902;-8.462;2023-12-07T14:59:16;15.40;68.50
80274;DHT22;69576;51.902;-8.462;2023-12-07T15:01:42;15.40;68.50
80274;DHT22;69576;51.902;-8.462;2023-12-07T15:04:11;15.40;68.70
80274;DHT22;69576;51.902;-8.462;2023-12-07T15:06:39;15.40;68.60
80274;DHT22;69576;51.902;-8.462;2023-12-07T15:09:05;15.30;68.70
80274;DHT22;69576;51.902;-8.462;2023-12-07T15:11:35;15.30;68.60
80274;DHT22;69576;51.902;-8.462;2023-12-07T15:14:01;15.30;68.70
80274;DHT22;69576;51.902;-8.462;2023-12-07T15:16:28;15.30;68.70
80274;DHT22;69576;51.902;-8.462;2023-12-07T15:18:58;15.30;68.70
80274;DHT22;69576;51.902;-8.462;2023-12-07T15:21:26;15.20;68.70
80274;DHT22;69576;51.902;-8.462;2023-12-07T15:23:51;15.20;68.80